Time;durP1;ratioP1;P1;durP2;ratioP2;P2;SDS_P1;SDS_P2;PMS_P1;PMS_P2;Temp;Humidity;BMP_temperature;BMP_pressure;BME280_temperature;BME280_humidity;BME280_pressure;Samples;Min_cycle;Max_cycle;Signal;HPM_P1;HPM_P2
2021/10/27 00:00:51;;;;;;;23.45;17.48;;;;;;;12.68;100.00;102054.53;10631605;27;20375;-58
2021/10/27 00:05:54;;;;;;;29.83;21.25;;;;;;;12.55;100.00;102054.22;10632240;27;20053;-59
2021/10/27 00:10:56;;;;;;;23.75;16.45;;;;;;;12.67;100.00;102060.69;10631238;27;20043;-60
2021/10/27 00:16:02;;;;;;;25.45;19.70;;;;;;;12.78;100.00;102071.56;10632038;27;20081;-59
2021/10/27 00:21:04;;;;;;;25.42;18.95;;;;;;;12.80;100.00;102080.22;10631368;27;20043;-58
2021/10/27 00:26:06;;;;;;;34.75;21.77;;;;;;;12.72;100.00;102077.94;10630825;27;20055;-59
2021/10/27 00:31:09;;;;;;;31.23;21.80;;;;;;;12.66;100.00;102078.25;10631099;27;20050;-59
2021/10/27 00:36:12;;;;;;;35.00;18.25;;;;;;;12.72;100.00;102084.97;10630728;27;20097;-58
2021/10/27 00:41:14;;;;;;;22.45;18.08;;;;;;;12.73;100.00;102079.66;10630457;27;20055;-58
2021/10/27 00:46:19;;;;;;;22.42;17.63;;;;;;;12.68;100.00;102089.53;10629703;27;20062;-59
2021/10/27 00:51:21;;;;;;;33.00;19.27;;;;;;;12.77;100.00;102088.25;10629493;27;20156;-59
2021/10/27 00:56:23;;;;;;;20.67;16.80;;;;;;;12.85;100.00;102080.84;10629504;27;20496;-58
2021/10/27 01:01:26;;;;;;;31.20;18.77;;;;;;;12.75;100.00;102079.59;10629165;27;20051;-58
2021/10/27 01:06:28;;;;;;;25.08;17.10;;;;;;;12.78;100.00;102071.56;10629076;27;20043;-58
2021/10/27 01:11:31;;;;;;;21.70;18.13;;;;;;;12.71;100.00;102070.13;10629014;27;20039;-59
2021/10/27 01:16:33;;;;;;;23.58;16.80;;;;;;;12.85;100.00;102072.13;10629578;27;20043;-59
2021/10/27 01:21:40;;;;;;;26.73;18.58;;;;;;;12.67;100.00;102069.41;10628620;27;20047;-60
2021/10/27 01:26:42;;;;;;;29.17;18.08;;;;;;;12.91;100.00;102064.81;10628908;27;20047;-59
2021/10/27 01:31:44;;;;;;;21.67;16.30;;;;;;;12.69;100.00;102051.78;10628593;27;20054;-58
2021/10/27 01:36:47;;;;;;;22.35;14.65;;;;;;;12.90;100.00;102044.69;10628107;27;20047;-59
2021/10/27 01:41:50;;;;;;;15.82;12.80;;;;;;;12.95;100.00;102045.34;10628043;27;20058;-59
2021/10/27 01:46:52;;;;;;;23.40;14.27;;;;;;;12.92;100.00;102040.22;10627580;27;20048;-58
2021/10/27 01:51:58;;;;;;;23.17;14.32;;;;;;;12.89;100.00;102037.72;10627883;27;20050;-59
2021/10/27 01:57:01;;;;;;;16.20;11.43;;;;;;;13.02;100.00;102040.63;10608892;27;20047;-57
2021/10/27 02:02:04;;;;;;;21.23;12.65;;;;;;;12.95;100.00;102042.69;10627224;27;20043;-59
2021/10/27 02:07:06;;;;;;;20.30;11.30;;;;;;;13.07;100.00;102036.00;10626898;27;20047;-60
2021/10/27 02:12:09;;;;;;;15.38;9.40;;;;;;;12.95;100.00;102040.06;10626426;27;20391;-58
2021/10/27 02:17:12;;;;;;;13.55;10.07;;;;;;;13.01;100.00;102037.16;10626794;27;20054;-58
2021/10/27 02:22:14;;;;;;;15.65;10.75;;;;;;;13.07;100.00;102035.16;10625890;27;20411;-60
2021/10/27 02:27:16;;;;;;;15.93;8.95;;;;;;;13.07;100.00;102046.53;10625736;27;20520;-59
2021/10/27 02:32:19;;;;;;;15.13;9.05;;;;;;;13.05;100.00;102031.75;10625543;27;20051;-58
2021/10/27 02:37:21;;;;;;;9.50;7.05;;;;;;;13.12;100.00;102041.03;10625671;27;20043;-58
2021/10/27 02:42:23;;;;;;;10.07;7.55;;;;;;;13.16;100.00;102037.31;10626077;27;20054;-58
2021/10/27 02:47:26;;;;;;;16.60;7.75;;;;;;;13.24;100.00;102042.22;10625170;27;20051;-59
2021/10/27 02:52:28;;;;;;;10.25;6.47;;;;;;;13.23;100.00;102038.75;10625122;27;20039;-59
2021/10/27 02:57:32;;;;;;;8.48;6.25;;;;;;;13.14;100.00;102040.03;10624916;27;20388;-58
2021/10/27 03:02:35;;;;;;;12.43;6.70;;;;;;;13.11;100.00;102041.97;10624749;27;20046;-59
2021/10/27 03:07:37;;;;;;;8.35;5.40;;;;;;;13.15;100.00;102043.53;10624960;27;20092;-59
2021/10/27 03:12:40;;;;;;;9.70;5.70;;;;;;;13.18;100.00;102044.22;10624483;27;20053;-60
2021/10/27 03:17:42;;;;;;;12.75;5.95;;;;;;;13.18;100.00;102054.75;10624545;28;20051;-59
2021/10/27 03:22:44;;;;;;;12.32;6.60;;;;;;;13.06;100.00;102059.72;10624226;28;20055;-58
2021/10/27 03:27:47;;;;;;;15.73;6.53;;;;;;;12.95;100.00;102058.47;10624939;28;20058;-59
2021/10/27 03:32:49;;;;;;;8.05;6.03;;;;;;;13.15;100.00;102052.25;10624223;28;20040;-59
2021/10/27 03:37:51;;;;;;;16.52;6.93;;;;;;;12.96;100.00;102054.94;10624133;28;20051;-59
2021/10/27 03:42:54;;;;;;;11.82;5.85;;;;;;;13.16;100.00;102050.47;10624815;28;20047;-57
2021/10/27 03:47:56;;;;;;;15.98;7.07;;;;;;;13.11;100.00;102052.47;10623847;28;20059;-59
2021/10/27 03:52:59;;;;;;;14.57;6.47;;;;;;;13.04;100.00;102069.47;10623837;28;20055;-59
2021/10/27 03:58:01;;;;;;;17.73;7.57;;;;;;;12.97;100.00;102050.50;10623463;28;20499;-59
2021/10/27 04:03:05;;;;;;;14.55;7.40;;;;;;;13.03;100.00;102050.22;10623692;28;20050;-60
2021/10/27 04:08:07;;;;;;;13.77;7.05;;;;;;;12.95;100.00;102047.13;10623733;28;20051;-59
2021/10/27 04:13:10;;;;;;;10.98;6.95;;;;;;;12.99;100.00;102052.16;10622788;28;20047;-59
2021/10/27 04:18:12;;;;;;;13.10;6.63;;;;;;;12.92;100.00;102050.72;10623977;27;20058;-58
2021/10/27 04:23:14;;;;;;;19.02;8.70;;;;;;;12.93;100.00;102044.56;10630714;27;20050;-59
2021/10/27 04:28:16;;;;;;;13.63;6.00;;;;;;;13.02;100.00;102054.63;10630583;27;20047;-58
2021/10/27 04:33:21;;;;;;;18.50;7.28;;;;;;;12.87;100.00;102057.13;10630472;27;20058;-59
2021/10/27 04:38:23;;;;;;;16.60;6.13;;;;;;;12.87;100.00;102057.97;10630216;27;20055;-59
2021/10/27 04:43:26;;;;;;;11.65;6.55;;;;;;;12.96;100.00;102056.69;10630096;27;20055;-59
2021/10/27 04:48:28;;;;;;;13.82;6.95;;;;;;;12.81;100.00;102059.13;10629969;27;20053;-60
2021/10/27 04:53:30;;;;;;;14.88;6.97;;;;;;;12.91;100.00;102070.06;10630149;27;20506;-59
2021/10/27 04:58:33;;;;;;;12.73;6.78;;;;;;;13.04;100.00;102070.31;10629789;27;20051;-58
2021/10/27 05:03:35;;;;;;;11.38;7.15;;;;;;;12.96;100.00;102072.47;10629232;27;20043;-60
2021/10/27 05:08:38;;;;;;;14.10;7.55;;;;;;;12.87;100.00;102081.63;10629206;27;20073;-59
2021/10/27 05:13:44;;;;;;;12.88;6.60;;;;;;;12.94;100.00;102069.91;10628784;27;20047;-59
2021/10/27 05:18:46;;;;;;;20.67;8.77;;;;;;;12.92;100.00;102081.44;10629035;27;20047;-59
2021/10/27 05:23:48;;;;;;;14.60;7.15;;;;;;;12.87;100.00;102070.28;10628602;27;20043;-60
2021/10/27 05:28:51;;;;;;;14.63;7.82;;;;;;;12.73;100.00;102079.66;10628143;27;20128;-60
2021/10/27 05:33:53;;;;;;;13.25;7.10;;;;;;;12.96;100.00;102078.59;10627185;27;20043;-59
2021/10/27 05:38:55;;;;;;;15.05;7.18;;;;;;;12.82;100.00;102081.00;10628071;27;20051;-60
2021/10/27 05:43:58;;;;;;;16.92;7.07;;;;;;;12.58;100.00;102078.56;10627726;27;20453;-60
2021/10/27 05:59:44;;;;;;;22.92;8.07;;;;;;;12.62;100.00;102084.53;10627629;27;20047;-59
2021/10/27 06:04:46;;;;;;;15.60;7.82;;;;;;;12.58;100.00;102075.09;10627531;27;20043;-60
2021/10/27 06:09:49;;;;;;;13.73;6.97;;;;;;;12.78;100.00;102095.22;10626566;27;20046;-59
2021/10/27 06:14:52;;;;;;;20.52;8.40;;;;;;;12.62;100.00;102100.31;10626866;27;20046;-59
2021/10/27 06:19:54;;;;;;;14.65;7.43;;;;;;;12.63;100.00;102104.66;10626207;27;20053;-59
2021/10/27 06:24:59;;;;;;;13.02;6.57;;;;;;;12.61;100.00;102107.34;10626243;27;20076;-60
2021/10/27 06:35:24;;;;;;;15.45;7.97;;;;;;;12.67;100.00;102111.47;10609207;27;20039;-58
2021/10/27 06:50:58;;;;;;;19.80;8.63;;;;;;;12.29;100.00;102129.78;10625125;27;20403;-60
2021/10/27 06:56:02;;;;;;;15.70;8.55;;;;;;;12.10;100.00;102128.84;10624690;27;20063;-61
2021/10/27 07:01:07;;;;;;;17.40;8.18;;;;;;;12.10;100.00;102124.44;10624887;27;20474;-58
2021/10/27 07:07:02;;;;;;;16.05;9.05;;;;;;;11.89;100.00;102139.31;10624758;27;20082;-60
2021/10/27 07:16:55;;;;;;;17.58;9.27;;;;;;;12.20;100.00;102138.03;10624595;27;20047;-60
2021/10/27 07:21:58;;;;;;;16.17;9.73;;;;;;;12.31;100.00;102145.47;10624474;27;20054;-60
2021/10/27 07:27:05;;;;;;;16.90;9.15;;;;;;;12.72;100.00;102153.28;10624269;28;20047;-60
2021/10/27 07:32:09;;;;;;;23.35;11.30;;;;;;;12.53;100.00;102155.91;10624509;28;20051;-58
2021/10/27 07:42:35;;;;;;;13.30;7.55;;;;;;;13.00;100.00;102172.16;10624552;28;20051;-60
2021/10/27 07:47:37;;;;;;;13.60;8.30;;;;;;;13.30;100.00;102176.06;10623799;28;20050;-60
2021/10/27 07:52:39;;;;;;;13.23;8.20;;;;;;;13.27;100.00;102179.69;10624176;27;20043;-59
2021/10/27 07:57:43;;;;;;;17.05;8.35;;;;;;;14.16;100.00;102182.44;10632543;27;20054;-60
2021/10/27 08:02:49;;;;;;;17.60;8.32;;;;;;;14.50;100.00;102185.97;10631876;27;20039;-58
2021/10/27 08:07:52;;;;;;;14.70;7.57;;;;;;;13.95;100.00;102189.63;10631504;27;20482;-59
2021/10/27 08:12:56;;;;;;;13.63;7.40;;;;;;;13.73;100.00;102205.63;10631751;27;20086;-59
2021/10/27 08:17:58;;;;;;;13.80;7.65;;;;;;;13.52;100.00;102200.47;10631332;27;20055;-61
2021/10/27 08:23:03;;;;;;;17.45;7.72;;;;;;;13.46;100.00;102202.53;10631153;27;20047;-59
2021/10/27 08:28:14;;;;;;;14.43;7.90;;;;;;;13.26;100.00;102195.53;10630687;27;20043;-59
2021/10/27 08:33:22;;;;;;;15.13;7.33;;;;;;;13.42;100.00;102203.63;10630110;27;20051;-59
2021/10/27 08:38:26;;;;;;;19.08;8.68;;;;;;;13.53;100.00;102191.66;10630915;27;20051;-59
2021/10/27 08:43:30;;;;;;;17.45;8.63;;;;;;;13.44;100.00;102196.50;10630594;27;20188;-58
2021/10/27 08:48:38;;;;;;;17.60;9.00;;;;;;;14.06;100.00;102197.84;10630003;27;20047;-61
2021/10/27 08:53:40;;;;;;;10.68;7.15;;;;;;;14.71;100.00;102199.00;10630197;27;20039;-59
2021/10/27 08:58:47;;;;;;;13.18;10.63;;;;;;;13.92;100.00;102197.69;10629878;27;20096;-59
2021/10/27 09:04:29;;;;;;;13.55;8.55;;;;;;;14.06;100.00;102213.66;10629704;27;20043;-60
2021/10/27 09:16:11;;;;;;;12.17;8.83;;;;;;;14.31;100.00;102210.63;10629017;27;20766;-61
2021/10/27 09:36:52;;;;;;;9.60;6.25;;;;;;;17.86;85.33;102198.06;10628280;27;20052;-61
2021/10/27 09:47:53;;;;;;;13.48;6.53;;;;;;;18.21;81.67;102200.22;10627965;27;20047;-60
2021/10/27 10:09:18;;;;;;;12.10;6.35;;;;;;;19.72;73.46;102202.88;10626411;27;20122;-61
2021/10/27 10:14:21;;;;;;;8.90;5.05;;;;;;;20.71;73.45;102192.75;10626440;27;20384;-60
2021/10/27 10:19:35;;;;;;;8.65;5.40;;;;;;;21.05;68.09;102195.44;10625756;27;20047;-61
2021/10/27 10:24:38;;;;;;;7.18;5.50;;;;;;;21.43;66.19;102191.47;10608192;27;20122;-59
2021/10/27 10:29:58;;;;;;;9.48;5.30;;;;;;;20.76;70.07;102187.91;10625808;27;20047;-61
2021/10/27 10:35:28;;;;;;;5.70;4.80;;;;;;;20.58;63.71;102180.41;10625874;27;20051;-60
2021/10/27 10:40:59;;;;;;;14.30;5.45;;;;;;;21.62;65.38;102183.69;10625450;27;20051;-61
2021/10/27 10:57:04;;;;;;;9.82;4.43;;;;;;;23.11;57.97;102188.78;10625317;27;20430;-61
2021/10/27 11:02:50;;;;;;;8.25;4.30;;;;;;;21.57;61.86;102193.88;10625750;27;20039;-62
2021/10/27 11:40:59;;;;;;;6.47;4.50;;;;;;;18.91;73.96;102183.03;10633022;27;20043;-60
2021/10/27 11:51:11;;;;;;;10.57;4.78;;;;;;;18.18;76.50;102188.00;10632575;27;20069;-60
2021/10/27 11:56:21;;;;;;;7.88;4.95;;;;;;;18.12;76.24;102177.81;10632626;27;20047;-60
2021/10/27 12:01:33;;;;;;;10.68;5.47;;;;;;;18.02;79.40;102168.78;10632421;27;20054;-64
2021/10/27 12:22:32;;;;;;;10.38;4.60;;;;;;;17.93;76.74;102145.56;10631216;27;20130;-60
2021/10/27 12:27:37;;;;;;;6.70;4.55;;;;;;;17.61;79.38;102132.63;10631607;27;20040;-61
2021/10/27 12:32:50;;;;;;;10.13;4.28;;;;;;;17.50;78.70;102133.34;10613405;27;20409;-61
2021/10/27 12:38:05;;;;;;;6.05;3.85;;;;;;;17.78;78.63;102119.09;10631336;27;20051;-60
2021/10/27 12:43:13;;;;;;;8.90;4.80;;;;;;;17.20;82.59;102118.50;10629883;27;20407;-62
2021/10/27 12:48:18;;;;;;;10.80;4.50;;;;;;;17.57;83.15;102109.97;10630378;27;20039;-61
2021/10/27 12:53:47;;;;;;;12.77;4.72;;;;;;;18.30;78.75;102108.59;10630207;27;20051;-61
2021/10/27 12:59:09;;;;;;;10.32;4.03;;;;;;;17.25;82.42;102107.63;10629701;27;20055;-61
2021/10/27 13:09:49;;;;;;;7.43;4.05;;;;;;;17.95;78.07;102093.31;10629051;27;20410;-61
2021/10/27 13:15:09;;;;;;;5.55;4.55;;;;;;;17.04;81.79;102093.97;10629185;27;20047;-62
2021/10/27 13:35:47;;;;;;;4.93;3.63;;;;;;;16.61;81.92;102076.38;10628628;27;20043;-62
2021/10/27 13:40:50;;;;;;;7.88;3.97;;;;;;;16.57;80.87;102089.88;10628522;27;20055;-61
2021/10/27 14:38:49;;;;;;;10.63;3.90;;;;;;;15.73;89.82;102068.41;10626083;27;20402;-61
2021/10/27 15:32:45;;;;;;;10.50;4.60;;;;;;;14.31;98.70;102033.28;10624619;28;20390;-60
2021/10/27 15:43:19;;;;;;;9.95;3.67;;;;;;;13.87;100.00;102032.06;10624193;28;20062;-60
2021/10/27 15:53:43;;;;;;;5.80;3.70;;;;;;;13.96;100.00;102029.88;10625293;28;20055;-61
2021/10/27 15:58:46;;;;;;;6.57;3.22;;;;;;;13.98;100.00;102034.13;10623700;28;20075;-59
2021/10/27 16:03:48;;;;;;;7.40;3.97;;;;;;;13.47;100.00;102038.50;10623744;28;20040;-62
2021/10/27 16:08:55;;;;;;;12.90;3.70;;;;;;;13.00;100.00;102031.97;10623837;28;20506;-60
2021/10/27 16:13:57;;;;;;;12.20;4.07;;;;;;;13.27;100.00;102032.41;10623801;27;20054;-60
2021/10/27 16:19:00;;;;;;;9.52;5.07;;;;;;;12.87;100.00;102026.44;10632045;27;20051;-62
2021/10/27 16:24:03;;;;;;;8.18;3.90;;;;;;;12.81;100.00;102024.13;10612966;27;20601;-61
2021/10/27 16:29:05;;;;;;;9.00;3.55;;;;;;;12.92;100.00;102031.47;10630980;27;20047;-61
2021/10/27 16:34:09;;;;;;;13.80;4.22;;;;;;;12.53;100.00;102028.03;10630903;27;20039;-60
2021/10/27 16:39:12;;;;;;;8.80;3.83;;;;;;;12.57;100.00;102037.44;10630627;27;20131;-61
2021/10/27 16:44:14;;;;;;;5.75;3.97;;;;;;;12.57;100.00;102039.22;10630618;27;20506;-60
2021/10/27 16:49:17;;;;;;;9.02;4.22;;;;;;;12.21;100.00;102040.00;10629976;27;20053;-61
2021/10/27 16:54:19;;;;;;;7.63;4.40;;;;;;;12.22;100.00;102032.03;10630286;27;20059;-61
2021/10/27 16:59:22;;;;;;;7.47;3.65;;;;;;;12.15;100.00;102038.47;10629545;27;20134;-61
2021/10/27 17:04:27;;;;;;;9.07;4.20;;;;;;;12.54;100.00;102039.38;10629911;27;20039;-61
2021/10/27 17:09:30;;;;;;;9.20;4.20;;;;;;;12.49;100.00;102038.72;10629134;27;20505;-61
2021/10/27 17:14:34;;;;;;;13.07;4.50;;;;;;;12.33;100.00;102026.31;10629237;27;20051;-62
2021/10/27 17:19:36;;;;;;;8.52;4.40;;;;;;;12.52;100.00;102030.72;10629277;27;20092;-61
2021/10/27 17:24:40;;;;;;;7.43;4.45;;;;;;;12.52;100.00;102039.44;10628988;27;20039;-60
2021/10/27 17:29:59;;;;;;;7.35;4.82;;;;;;;12.54;100.00;102029.75;10629236;27;20078;-60
2021/10/27 17:35:01;;;;;;;15.18;4.88;;;;;;;12.55;100.00;102039.31;10628438;27;20070;-59
2021/10/27 17:40:11;;;;;;;8.45;4.50;;;;;;;12.35;100.00;102027.06;10610316;27;20065;-61
2021/10/27 17:45:17;;;;;;;11.07;5.20;;;;;;;12.30;100.00;102023.81;10628103;27;20039;-62
2021/10/27 18:00:45;;;;;;;9.38;5.10;;;;;;;12.39;100.00;102031.28;10627835;27;20047;-60
2021/10/27 18:05:47;;;;;;;11.35;5.75;;;;;;;12.36;100.00;102034.03;10627305;27;20088;-60
2021/10/27 18:10:55;;;;;;;6.40;5.40;;;;;;;12.53;100.00;102027.19;10626576;27;20070;-61
2021/10/27 18:21:26;;;;;;;11.10;5.70;;;;;;;12.39;100.00;102030.41;10626534;27;20450;-60
2021/10/27 18:42:09;;;;;;;9.82;5.57;;;;;;;12.07;100.00;102033.56;10625134;27;20055;-61
2021/10/27 18:47:16;;;;;;;11.20;5.97;;;;;;;12.33;100.00;102039.44;10625487;27;20055;-60
2021/10/27 18:52:28;;;;;;;8.88;5.30;;;;;;;12.31;100.00;102035.19;10624799;27;20055;-59
2021/10/27 19:13:34;;;;;;;8.10;5.68;;;;;;;11.92;100.00;102034.25;10624733;27;20074;-62
2021/10/27 19:18:36;;;;;;;10.77;6.90;;;;;;;11.66;100.00;102032.69;10624512;27;20043;-61
2021/10/27 19:23:40;;;;;;;11.02;6.10;;;;;;;12.04;100.00;102044.19;10624516;27;20050;-61
2021/10/27 20:06:19;;;;;;;14.60;7.68;;;;;;;11.29;100.00;102040.31;10631957;27;20506;-61
2021/10/27 20:54:26;;;;;;;12.52;9.38;;;;;;;10.87;100.00;102033.25;10585843;27;20402;-59
2021/10/27 20:59:39;;;;;;;15.25;9.93;;;;;;;10.87;100.00;102029.78;10629719;27;20070;-60
2021/10/27 21:15:05;;;;;;;11.50;9.90;;;;;;;10.84;100.00;102016.78;10629321;27;20082;-60
2021/10/27 21:20:09;;;;;;;14.55;10.73;;;;;;;10.71;100.00;102024.28;10628895;27;20049;-61
2021/10/27 21:25:13;;;;;;;15.15;9.43;;;;;;;10.85;100.00;102023.75;10629130;27;20047;-61
2021/10/27 21:46:24;;;;;;;13.52;9.77;;;;;;;10.58;100.00;102027.34;10628477;27;20047;-59
2021/10/27 21:51:26;;;;;;;17.67;11.82;;;;;;;10.54;100.00;102017.91;10627660;27;20047;-61
2021/10/27 21:56:28;;;;;;;12.68;11.38;;;;;;;10.59;100.00;102007.25;10627704;27;20050;-61
2021/10/27 22:01:31;;;;;;;17.17;11.32;;;;;;;10.47;100.00;102015.56;10627304;27;20047;-61
2021/10/27 22:06:34;;;;;;;25.08;12.70;;;;;;;10.53;100.00;102004.88;10627001;27;20547;-60
2021/10/27 22:11:37;;;;;;;15.40;10.75;;;;;;;10.57;100.00;102002.09;10625961;27;20047;-60
2021/10/27 22:16:43;;;;;;;17.20;11.23;;;;;;;10.36;100.00;101995.03;10627062;27;20050;-60
2021/10/27 22:21:46;;;;;;;18.48;11.93;;;;;;;10.50;100.00;101986.66;10626246;27;20108;-60
2021/10/27 22:26:48;;;;;;;16.77;11.65;;;;;;;10.44;100.00;101982.53;10626219;27;20043;-60
2021/10/27 22:31:51;;;;;;;20.98;10.55;;;;;;;10.49;100.00;101980.59;10625888;27;20070;-60
2021/10/27 22:36:53;;;;;;;18.77;11.82;;;;;;;10.22;100.00;101985.03;10626047;27;20053;-59
2021/10/27 22:41:56;;;;;;;22.42;13.50;;;;;;;10.17;100.00;101982.59;10625788;27;20055;-61
2021/10/27 22:46:59;;;;;;;20.25;13.15;;;;;;;10.09;100.00;101976.78;10625550;27;20050;-60
2021/10/27 22:52:02;;;;;;;16.38;12.45;;;;;;;10.11;100.00;101979.34;10607145;27;20051;-60
2021/10/27 22:57:05;;;;;;;18.98;11.05;;;;;;;10.20;100.00;101973.78;10625829;27;20066;-59
2021/10/27 23:07:48;;;;;;;15.27;11.13;;;;;;;9.98;100.00;101965.84;10625022;27;20047;-61
2021/10/27 23:40:03;;;;;;;15.57;10.18;;;;;;;9.86;100.00;101941.84;10624153;28;20051;-60
2021/10/27 23:45:10;;;;;;;14.38;9.88;;;;;;;9.91;100.00;101935.59;10624022;28;20406;-60
2021/10/27 23:50:21;;;;;;;14.45;10.57;;;;;;;9.65;100.00;101943.47;10623764;28;20047;-60
